Time;durP1;ratioP1;P1;durP2;ratioP2;P2;SDS_P1;SDS_P2;PMS_P1;PMS_P2;Temp;Humidity;BMP_temperature;BMP_pressure;BME280_temperature;BME280_humidity;BME280_pressure;Samples;Min_cycle;Max_cycle;Signal;HPM_P1;HPM_P2
2022/02/17 00:00:13;;;;;;;2.07;0.93;;;8.10;99.90;;;;;;5008645;28;20458;-60
2022/02/17 00:02:42;;;;;;;0.80;0.80;;;8.10;99.90;;;;;;5010696;28;20455;-62
2022/02/17 00:05:09;;;;;;;0.80;0.80;;;8.20;99.90;;;;;;5005925;28;20432;-61
2022/02/17 00:07:36;;;;;;;1.00;0.90;;;8.20;99.90;;;;;;5013591;28;20430;-62
2022/02/17 00:10:02;;;;;;;0.83;0.83;;;8.30;99.90;;;;;;5007948;28;20431;-62
2022/02/17 00:12:28;;;;;;;1.20;0.80;;;8.30;99.90;;;;;;5012926;28;20442;-61
2022/02/17 00:14:54;;;;;;;0.70;0.70;;;8.40;99.90;;;;;;5008344;28;20863;-64
2022/02/17 00:17:20;;;;;;;0.80;0.80;;;8.50;99.90;;;;;;5009243;28;20467;-62
2022/02/17 00:19:45;;;;;;;0.80;0.80;;;8.50;99.90;;;;;;5009149;28;20287;-62
2022/02/17 00:22:11;;;;;;;0.80;0.80;;;8.50;99.90;;;;;;5009116;28;20294;-63
2022/02/17 00:24:37;;;;;;;0.90;0.90;;;8.60;99.90;;;;;;5010129;28;20176;-61
2022/02/17 00:27:03;;;;;;;0.90;0.80;;;8.60;99.90;;;;;;5010066;28;20204;-62
2022/02/17 00:29:29;;;;;;;0.80;0.80;;;8.60;99.90;;;;;;5008069;28;20241;-62
2022/02/17 00:31:54;;;;;;;0.80;0.80;;;8.70;99.90;;;;;;5007165;28;20185;-62
2022/02/17 00:34:20;;;;;;;0.83;0.80;;;8.80;99.90;;;;;;5007900;28;20787;-62
2022/02/17 00:36:46;;;;;;;0.80;0.70;;;8.80;99.90;;;;;;5008903;28;20176;-62
2022/02/17 00:39:11;;;;;;;1.10;1.10;;;8.80;99.90;;;;;;5005199;28;20204;-62
2022/02/17 00:41:37;;;;;;;1.10;1.00;;;8.90;99.90;;;;;;5011355;28;20268;-61
2022/02/17 00:44:03;;;;;;;1.70;0.90;;;8.90;99.90;;;;;;5008791;28;20207;-62
2022/02/17 00:46:28;;;;;;;0.70;0.70;;;8.90;99.90;;;;;;5024632;28;20176;-62
2022/02/17 00:48:54;;;;;;;0.80;0.80;;;8.90;99.90;;;;;;5023819;28;20743;-63
2022/02/17 00:51:20;;;;;;;0.80;0.80;;;8.90;99.90;;;;;;5006609;28;20172;-62
2022/02/17 00:53:45;;;;;;;0.80;0.80;;;9.00;99.90;;;;;;5009037;28;20642;-62
2022/02/17 00:56:11;;;;;;;2.10;0.70;;;9.00;99.90;;;;;;5010012;28;20185;-62
2022/02/17 00:58:37;;;;;;;0.70;0.60;;;9.00;99.90;;;;;;5007586;28;20196;-62
2022/02/17 01:01:03;;;;;;;2.00;0.90;;;9.00;99.90;;;;;;5008305;28;20216;-61
2022/02/17 01:03:29;;;;;;;0.70;0.70;;;9.00;99.90;;;;;;5008711;28;20561;-63
2022/02/17 01:05:55;;;;;;;1.07;0.90;;;9.00;99.90;;;;;;5008272;28;20185;-62
2022/02/17 01:08:20;;;;;;;0.90;0.90;;;9.00;99.90;;;;;;5004940;28;20200;-61
2022/02/17 01:10:46;;;;;;;0.93;0.90;;;9.00;99.90;;;;;;5020383;28;20184;-62
2022/02/17 01:13:12;;;;;;;0.80;0.80;;;9.00;99.90;;;;;;5008624;28;20188;-63
2022/02/17 01:15:38;;;;;;;1.00;0.90;;;9.00;99.90;;;;;;5010903;28;20234;-62
2022/02/17 01:18:04;;;;;;;0.87;0.80;;;9.00;99.90;;;;;;5007845;28;20625;-61
2022/02/17 01:20:29;;;;;;;0.70;0.70;;;9.10;99.90;;;;;;5008693;28;20692;-63
2022/02/17 01:22:55;;;;;;;0.80;0.80;;;9.10;99.90;;;;;;5008887;28;20462;-62
2022/02/17 01:25:21;;;;;;;0.70;0.70;;;9.10;99.90;;;;;;5011846;28;20203;-62
2022/02/17 01:27:46;;;;;;;0.70;0.70;;;9.20;99.90;;;;;;5012646;28;20673;-61
2022/02/17 01:30:12;;;;;;;0.77;0.77;;;9.20;99.90;;;;;;5010558;28;20184;-62
2022/02/17 01:32:38;;;;;;;0.70;0.70;;;9.30;99.90;;;;;;5019385;28;20180;-61
2022/02/17 01:35:04;;;;;;;0.83;0.70;;;9.30;99.90;;;;;;5012404;28;20188;-63
2022/02/17 01:37:30;;;;;;;0.70;0.70;;;9.30;99.90;;;;;;5012910;28;20207;-60
2022/02/17 01:39:55;;;;;;;0.63;0.63;;;9.30;99.90;;;;;;5012066;28;20531;-61
2022/02/17 01:42:21;;;;;;;0.80;0.70;;;9.40;99.90;;;;;;5012218;28;20208;-62
2022/02/17 01:44:50;;;;;;;1.70;0.83;;;9.40;99.90;;;;;;5012645;28;20180;-62
2022/02/17 01:47:17;;;;;;;0.70;0.70;;;9.40;99.90;;;;;;5011348;28;20172;-62
2022/02/17 01:49:44;;;;;;;1.10;1.00;;;9.40;99.90;;;;;;5027763;28;20487;-62
2022/02/17 01:52:11;;;;;;;0.60;0.60;;;9.40;99.90;;;;;;5013658;28;20565;-62
2022/02/17 01:54:44;;;;;;;0.70;0.70;;;9.40;99.90;;;;;;5012583;28;20466;-62
2022/02/17 01:57:15;;;;;;;0.60;0.60;;;9.40;99.90;;;;;;5012613;28;20427;-62
2022/02/17 01:59:43;;;;;;;0.70;0.70;;;9.40;99.90;;;;;;5011471;28;20924;-61
2022/02/17 02:02:09;;;;;;;1.83;0.80;;;9.30;99.90;;;;;;5013162;28;20416;-62
2022/02/17 02:04:37;;;;;;;0.70;0.70;;;9.30;99.90;;;;;;5022988;28;20427;-62
2022/02/17 02:07:04;;;;;;;0.63;0.63;;;9.30;99.90;;;;;;5012095;28;20446;-63
2022/02/17 02:09:30;;;;;;;0.87;0.80;;;9.30;99.90;;;;;;5016678;28;20453;-60
2022/02/17 02:11:57;;;;;;;0.80;0.80;;;9.30;99.90;;;;;;5005363;28;20467;-62
2022/02/17 02:14:22;;;;;;;0.70;0.70;;;9.30;99.90;;;;;;5002839;28;20438;-62
2022/02/17 02:16:48;;;;;;;1.07;0.80;;;9.30;99.90;;;;;;5011731;28;20423;-61
2022/02/17 02:19:14;;;;;;;1.27;0.97;;;9.30;99.90;;;;;;5011641;28;20280;-62
2022/02/17 02:21:39;;;;;;;0.70;0.60;;;9.30;99.90;;;;;;5011189;28;20551;-61
2022/02/17 02:24:05;;;;;;;0.80;0.70;;;9.30;99.90;;;;;;5011750;28;20600;-61
2022/02/17 02:26:31;;;;;;;4.17;0.80;;;9.30;99.90;;;;;;5012154;28;20176;-61
2022/02/17 02:28:59;;;;;;;0.70;0.70;;;9.30;99.90;;;;;;5009302;28;20523;-62
2022/02/17 02:31:25;;;;;;;0.80;0.80;;;9.30;99.90;;;;;;5004206;28;20172;-63
2022/02/17 02:33:51;;;;;;;0.90;0.70;;;9.30;99.90;;;;;;5005263;28;21019;-62
2022/02/17 02:36:16;;;;;;;0.70;0.70;;;9.30;99.90;;;;;;5007193;28;20960;-62
2022/02/17 02:38:42;;;;;;;0.70;0.70;;;9.40;99.90;;;;;;5027885;23;20228;-61
2022/02/17 02:41:08;;;;;;;0.70;0.70;;;9.40;99.90;;;;;;5007498;28;20172;-60
2022/02/17 02:43:35;;;;;;;0.80;0.80;;;9.30;99.90;;;;;;5008661;28;20228;-59
2022/02/17 02:46:02;;;;;;;0.97;0.70;;;9.30;99.90;;;;;;4997130;28;20428;-59
2022/02/17 02:48:27;;;;;;;1.73;0.70;;;9.30;99.90;;;;;;5002158;28;21014;-58
2022/02/17 02:50:53;;;;;;;0.90;0.70;;;9.20;99.90;;;;;;4988981;28;20428;-59
2022/02/17 02:53:19;;;;;;;0.80;0.80;;;9.20;99.90;;;;;;4985227;28;20677;-59
2022/02/17 02:55:46;;;;;;;0.70;0.70;;;9.20;99.90;;;;;;4999127;28;20177;-58
2022/02/17 02:58:13;;;;;;;0.70;0.70;;;9.20;99.90;;;;;;4985754;28;20471;-61
2022/02/17 03:00:43;;;;;;;0.70;0.70;;;9.20;99.90;;;;;;4989667;28;20994;-58
2022/02/17 03:03:08;;;;;;;1.53;0.80;;;9.10;99.90;;;;;;4979527;28;20619;-59
2022/02/17 03:05:34;;;;;;;0.80;0.80;;;9.10;99.90;;;;;;4989350;28;20419;-58
2022/02/17 03:08:00;;;;;;;0.80;0.80;;;9.10;99.90;;;;;;4988060;28;20597;-57
2022/02/17 03:10:30;;;;;;;1.20;0.90;;;9.10;99.90;;;;;;4987096;28;20255;-58
2022/02/17 03:13:00;;;;;;;0.70;0.70;;;9.10;99.90;;;;;;4988007;28;20775;-59
2022/02/17 03:15:26;;;;;;;0.90;0.90;;;9.10;99.90;;;;;;4989582;28;20428;-58
2022/02/17 03:17:53;;;;;;;1.17;1.07;;;9.00;99.90;;;;;;4989146;28;20495;-58
2022/02/17 03:20:20;;;;;;;0.80;0.80;;;9.00;99.90;;;;;;4986191;28;21090;-58
2022/02/17 03:22:46;;;;;;;0.73;0.73;;;9.00;99.90;;;;;;4989120;28;21252;-57
2022/02/17 03:25:15;;;;;;;0.80;0.80;;;9.00;99.90;;;;;;4989492;28;20423;-57
2022/02/17 03:27:41;;;;;;;0.70;0.70;;;9.00;99.90;;;;;;4986752;28;20428;-59
2022/02/17 03:30:09;;;;;;;0.70;0.70;;;8.90;99.90;;;;;;4984924;28;20451;-59
2022/02/17 03:32:35;;;;;;;0.70;0.70;;;8.90;99.90;;;;;;4988042;28;20469;-58
2022/02/17 03:35:02;;;;;;;0.70;0.70;;;8.90;99.90;;;;;;4986663;28;20436;-58
2022/02/17 03:37:29;;;;;;;0.80;0.80;;;8.90;99.90;;;;;;4984075;28;20433;-58
2022/02/17 03:39:55;;;;;;;0.80;0.70;;;8.90;99.90;;;;;;4987627;28;20455;-57
2022/02/17 03:42:20;;;;;;;0.70;0.70;;;8.90;99.90;;;;;;4991787;28;21039;-57
2022/02/17 03:44:46;;;;;;;1.13;0.80;;;8.90;99.90;;;;;;4988297;28;20499;-57
2022/02/17 03:47:12;;;;;;;0.70;0.70;;;8.90;99.90;;;;;;4986903;28;20173;-59
2022/02/17 03:49:38;;;;;;;1.43;0.80;;;8.90;99.90;;;;;;4986840;28;20666;-59
2022/02/17 03:52:04;;;;;;;0.70;0.70;;;8.90;99.90;;;;;;4979901;28;20204;-58
2022/02/17 03:54:29;;;;;;;0.80;0.80;;;8.90;99.90;;;;;;4985444;28;20173;-58
2022/02/17 03:56:55;;;;;;;0.60;0.60;;;8.90;99.90;;;;;;4984564;28;20835;-58
2022/02/17 03:59:21;;;;;;;0.70;0.70;;;8.90;99.90;;;;;;4986510;28;20189;-58
2022/02/17 04:01:46;;;;;;;1.10;1.00;;;9.00;99.90;;;;;;4989671;28;20203;-57
2022/02/17 04:04:12;;;;;;;1.07;0.97;;;9.00;99.90;;;;;;4990855;28;20205;-57
2022/02/17 04:06:38;;;;;;;0.70;0.70;;;9.00;99.90;;;;;;4990351;28;20664;-59
2022/02/17 04:09:05;;;;;;;0.90;0.83;;;9.10;99.90;;;;;;4988673;28;20190;-58
2022/02/17 04:11:31;;;;;;;1.47;0.90;;;9.10;99.90;;;;;;4990399;28;20428;-57
2022/02/17 04:13:57;;;;;;;0.70;0.70;;;9.10;99.90;;;;;;4985932;28;20448;-57
2022/02/17 04:16:23;;;;;;;0.70;0.70;;;9.10;99.90;;;;;;4986246;28;20429;-57
2022/02/17 04:18:49;;;;;;;0.67;0.67;;;9.20;99.90;;;;;;4987490;28;20315;-58
2022/02/17 04:21:17;;;;;;;1.97;0.87;;;9.20;99.90;;;;;;4981364;28;20459;-59
2022/02/17 04:23:46;;;;;;;0.70;0.70;;;9.20;99.90;;;;;;4987399;28;20459;-58
2022/02/17 04:26:13;;;;;;;0.77;0.77;;;9.20;99.90;;;;;;4987263;28;20420;-57
2022/02/17 04:28:40;;;;;;;1.00;1.00;;;9.20;99.90;;;;;;4984811;28;20440;-58
2022/02/17 04:31:06;;;;;;;0.70;0.70;;;9.20;99.90;;;;;;4986087;28;20430;-57
2022/02/17 04:33:33;;;;;;;0.70;0.70;;;9.20;99.90;;;;;;4987656;28;20957;-59
2022/02/17 04:35:59;;;;;;;2.30;0.80;;;9.20;99.90;;;;;;4987872;28;20427;-58
2022/02/17 04:38:24;;;;;;;0.80;0.80;;;9.20;99.90;;;;;;4982320;28;20539;-56
2022/02/17 04:43:34;;;;;;;0.70;0.70;;;9.20;99.90;;;;;;4987910;28;20322;-58
2022/02/17 04:45:59;;;;;;;0.70;0.70;;;9.20;99.90;;;;;;4988152;28;20455;-59
2022/02/17 04:48:25;;;;;;;0.70;0.70;;;9.20;99.90;;;;;;4997791;28;20208;-58
2022/02/17 04:50:51;;;;;;;0.90;0.90;;;9.20;99.90;;;;;;4986729;28;20193;-58
2022/02/17 04:53:17;;;;;;;4.03;0.70;;;9.20;99.90;;;;;;4985802;28;20178;-58
2022/02/17 04:55:43;;;;;;;0.70;0.70;;;9.20;99.90;;;;;;4983653;28;20183;-58
2022/02/17 04:58:09;;;;;;;0.73;0.73;;;9.20;99.90;;;;;;4984923;28;21789;-59
2022/02/17 05:00:34;;;;;;;0.80;0.80;;;9.30;99.90;;;;;;4982282;28;20229;-57
2022/02/17 05:03:00;;;;;;;1.20;0.93;;;9.30;99.90;;;;;;4974117;28;20295;-58
2022/02/17 05:05:26;;;;;;;3.33;0.80;;;9.40;99.90;;;;;;4982262;28;20280;-59
2022/02/17 05:07:52;;;;;;;0.80;0.80;;;9.40;99.90;;;;;;4981669;28;20274;-56
2022/02/17 05:10:17;;;;;;;0.80;0.80;;;9.40;99.90;;;;;;4976371;28;20926;-57
2022/02/17 05:12:43;;;;;;;1.13;1.03;;;9.40;99.90;;;;;;4980324;28;20181;-61
2022/02/17 05:15:09;;;;;;;1.10;1.10;;;9.40;99.90;;;;;;4981730;28;20177;-57
2022/02/17 05:17:35;;;;;;;1.60;1.50;;;9.40;99.90;;;;;;4980283;28;20260;-58
2022/02/17 05:20:01;;;;;;;1.47;1.07;;;9.40;99.90;;;;;;4976993;28;20201;-58
2022/02/17 05:22:27;;;;;;;1.53;1.10;;;9.40;99.90;;;;;;4995037;28;20456;-57
2022/02/17 05:24:53;;;;;;;2.60;1.17;;;9.40;99.90;;;;;;4982237;28;20173;-57
2022/02/17 05:27:19;;;;;;;1.17;1.00;;;9.40;99.90;;;;;;4984348;28;20601;-60
2022/02/17 05:29:44;;;;;;;1.40;1.30;;;9.40;99.90;;;;;;4979965;28;21231;-58
2022/02/17 05:32:10;;;;;;;0.80;0.80;;;9.40;99.90;;;;;;4981296;28;20256;-58
2022/02/17 05:34:36;;;;;;;1.10;1.00;;;9.40;99.90;;;;;;4979412;28;20181;-59
2022/02/17 05:37:01;;;;;;;0.80;0.80;;;9.50;99.90;;;;;;4975823;28;20186;-57
2022/02/17 05:39:27;;;;;;;0.70;0.70;;;9.50;99.90;;;;;;4976265;28;20212;-58
2022/02/17 05:41:53;;;;;;;0.70;0.70;;;9.50;99.90;;;;;;4988995;28;20196;-58
2022/02/17 05:44:19;;;;;;;0.80;0.80;;;9.60;99.90;;;;;;4978436;28;20495;-58
2022/02/17 05:46:45;;;;;;;0.90;0.90;;;9.60;99.90;;;;;;4981668;28;20432;-57
2022/02/17 05:49:11;;;;;;;6.23;0.80;;;9.60;99.90;;;;;;4983860;28;20462;-58
2022/02/17 05:51:37;;;;;;;0.90;0.90;;;9.60;99.90;;;;;;4984419;28;20192;-58
2022/02/17 05:54:03;;;;;;;0.70;0.70;;;9.60;99.90;;;;;;4981966;28;20383;-59
2022/02/17 05:56:28;;;;;;;0.80;0.80;;;9.60;99.90;;;;;;4983143;28;20681;-58
2022/02/17 05:58:54;;;;;;;1.47;0.90;;;9.60;99.90;;;;;;4978667;28;20511;-58
2022/02/17 06:01:19;;;;;;;1.90;0.70;;;9.60;99.90;;;;;;4981520;28;20208;-59
2022/02/17 06:03:45;;;;;;;1.80;0.80;;;9.70;99.90;;;;;;4986902;28;20201;-59
2022/02/17 06:06:11;;;;;;;0.70;0.70;;;9.70;99.90;;;;;;4986615;28;20717;-58
2022/02/17 06:08:36;;;;;;;0.83;0.70;;;9.70;99.90;;;;;;4997599;28;20200;-56
2022/02/17 06:11:02;;;;;;;0.80;0.80;;;9.60;99.90;;;;;;4997747;28;20260;-57
2022/02/17 06:13:28;;;;;;;0.97;0.87;;;9.60;99.90;;;;;;4986419;28;20634;-59
2022/02/17 06:15:53;;;;;;;1.50;1.10;;;9.60;99.90;;;;;;4998559;28;21140;-58
2022/02/17 06:18:19;;;;;;;1.10;0.80;;;9.70;99.90;;;;;;4988666;28;20197;-59
2022/02/17 06:20:45;;;;;;;0.73;0.73;;;9.60;99.90;;;;;;4989438;28;20200;-58
2022/02/17 06:23:10;;;;;;;0.80;0.80;;;9.70;99.90;;;;;;4992849;28;20656;-57
2022/02/17 06:25:36;;;;;;;0.70;0.70;;;9.60;99.90;;;;;;4976709;28;20799;-58
2022/02/17 06:28:03;;;;;;;0.80;0.80;;;9.70;99.90;;;;;;4990421;28;20180;-58
2022/02/17 06:30:29;;;;;;;0.73;0.73;;;9.70;99.90;;;;;;4990151;28;20201;-59
2022/02/17 06:32:56;;;;;;;0.83;0.83;;;9.70;99.90;;;;;;4990689;28;20428;-59
2022/02/17 06:35:25;;;;;;;0.70;0.70;;;9.70;99.90;;;;;;4982459;28;20507;-59
2022/02/17 06:37:52;;;;;;;0.70;0.70;;;9.70;99.90;;;;;;5000618;28;20934;-58
2022/02/17 06:40:20;;;;;;;0.70;0.70;;;9.80;99.90;;;;;;4993399;28;20510;-58
2022/02/17 06:42:46;;;;;;;0.80;0.70;;;9.80;99.90;;;;;;4984506;28;20499;-59
2022/02/17 06:45:12;;;;;;;1.40;0.90;;;9.80;99.90;;;;;;4970764;28;20788;-57
2022/02/17 06:47:37;;;;;;;2.50;1.70;;;9.90;99.90;;;;;;4982522;28;20408;-58
2022/02/17 06:50:05;;;;;;;0.87;0.87;;;9.90;99.90;;;;;;4987490;28;20204;-59
2022/02/17 06:52:31;;;;;;;3.70;2.40;;;9.90;99.90;;;;;;4989076;28;20269;-58
2022/02/17 06:54:56;;;;;;;1.60;1.50;;;9.90;99.90;;;;;;5000641;28;20813;-57
2022/02/17 06:57:23;;;;;;;0.73;0.73;;;9.90;99.90;;;;;;5010076;28;20168;-58
2022/02/17 06:59:50;;;;;;;0.70;0.70;;;9.90;99.90;;;;;;5005342;28;20651;-58
2022/02/17 07:02:24;;;;;;;1.87;1.10;;;9.90;99.90;;;;;;4988195;28;20489;-57
2022/02/17 07:04:50;;;;;;;0.80;0.80;;;9.90;99.90;;;;;;4989983;28;20526;-58
2022/02/17 07:07:16;;;;;;;0.80;0.80;;;9.90;99.90;;;;;;5000232;28;20753;-58
2022/02/17 07:09:41;;;;;;;0.73;0.73;;;9.90;99.90;;;;;;4994142;28;20194;-59
2022/02/17 07:12:08;;;;;;;0.80;0.80;;;9.90;99.90;;;;;;4976201;28;20173;-58
2022/02/17 07:14:33;;;;;;;0.70;0.70;;;9.90;99.90;;;;;;4986961;28;20177;-58
2022/02/17 07:16:59;;;;;;;1.00;1.00;;;9.90;99.90;;;;;;4983745;28;20914;-58
2022/02/17 07:19:25;;;;;;;0.70;0.70;;;10.00;99.90;;;;;;4984056;28;20235;-58
2022/02/17 07:21:51;;;;;;;0.80;0.80;;;10.00;99.90;;;;;;4985946;28;20707;-60
2022/02/17 07:24:21;;;;;;;0.70;0.70;;;10.00;99.90;;;;;;5001623;28;20828;-58
2022/02/17 07:26:47;;;;;;;0.80;0.80;;;10.10;99.90;;;;;;4980490;28;20428;-58
2022/02/17 07:29:14;;;;;;;0.63;0.63;;;10.20;99.90;;;;;;4981777;28;20542;-59
2022/02/17 07:31:40;;;;;;;1.97;0.77;;;10.20;99.90;;;;;;4987040;28;20455;-58
2022/02/17 07:34:07;;;;;;;1.10;1.10;;;10.20;99.90;;;;;;4992392;28;20432;-58
2022/02/17 07:36:33;;;;;;;0.80;0.80;;;10.20;99.90;;;;;;4986697;28;20428;-57
2022/02/17 07:38:59;;;;;;;1.00;0.80;;;10.20;99.90;;;;;;4983039;28;20773;-59
2022/02/17 07:41:24;;;;;;;2.60;0.80;;;10.20;99.90;;;;;;5003498;28;20424;-58
2022/02/17 07:43:50;;;;;;;1.07;0.97;;;10.20;99.90;;;;;;4987870;28;20260;-58
2022/02/17 07:46:16;;;;;;;0.67;0.67;;;10.20;99.90;;;;;;4988491;28;20256;-59
2022/02/17 07:48:42;;;;;;;0.97;0.97;;;10.30;99.90;;;;;;4986340;28;20515;-59
2022/02/17 07:51:07;;;;;;;1.07;0.80;;;10.30;99.90;;;;;;4985130;28;20428;-60
2022/02/17 07:53:33;;;;;;;1.03;0.97;;;10.30;99.90;;;;;;4988559;28;20172;-57
2022/02/17 07:56:00;;;;;;;2.93;1.50;;;10.30;99.90;;;;;;4986423;28;20871;-59
2022/02/17 07:58:26;;;;;;;2.50;1.77;;;10.30;99.90;;;;;;4989142;28;20220;-59
2022/02/17 08:00:52;;;;;;;1.33;0.80;;;10.30;99.90;;;;;;4987923;28;20751;-59
2022/02/17 08:03:18;;;;;;;0.80;0.80;;;10.40;99.90;;;;;;4998715;28;20464;-59
2022/02/17 08:05:45;;;;;;;0.70;0.70;;;10.40;99.90;;;;;;4988044;28;20514;-58
2022/02/17 08:08:11;;;;;;;0.80;0.80;;;10.40;99.90;;;;;;4980614;28;20177;-58
2022/02/17 08:10:37;;;;;;;0.70;0.70;;;10.40;99.90;;;;;;4993198;28;20438;-59
2022/02/17 08:13:04;;;;;;;0.90;0.90;;;10.40;99.90;;;;;;4987497;28;20432;-59
2022/02/17 08:15:30;;;;;;;0.83;0.83;;;10.40;99.90;;;;;;4985380;28;20178;-58
2022/02/17 08:17:56;;;;;;;0.97;0.90;;;10.40;99.90;;;;;;4983908;28;20546;-60
2022/02/17 08:20:22;;;;;;;0.97;0.90;;;10.50;99.90;;;;;;4987776;28;20189;-59
2022/02/17 08:22:57;;;;;;;0.63;0.63;;;10.50;99.90;;;;;;4985465;28;20682;-58
2022/02/17 08:25:23;;;;;;;0.93;0.93;;;10.50;99.90;;;;;;4979046;28;20439;-59
2022/02/17 08:27:50;;;;;;;0.80;0.80;;;10.50;99.90;;;;;;4986586;28;20439;-58
2022/02/17 08:30:18;;;;;;;0.90;0.90;;;10.50;99.90;;;;;;4987789;28;20966;-59
2022/02/17 08:32:44;;;;;;;0.80;0.80;;;10.40;99.90;;;;;;4985153;28;20480;-58
2022/02/17 08:35:11;;;;;;;0.70;0.70;;;10.50;99.90;;;;;;4975708;28;20436;-59
2022/02/17 08:37:38;;;;;;;1.00;1.00;;;10.50;99.90;;;;;;4989908;28;20181;-58
2022/02/17 08:40:08;;;;;;;1.70;0.80;;;10.40;99.90;;;;;;5006501;23;20483;-62
2022/02/17 08:42:35;;;;;;;0.77;0.77;;;10.50;99.90;;;;;;5023960;28;20471;-63
2022/02/17 08:45:01;;;;;;;0.80;0.80;;;10.50;99.90;;;;;;5003452;28;20467;-63
2022/02/17 08:47:27;;;;;;;1.23;0.90;;;10.50;99.90;;;;;;5012125;28;20819;-63
2022/02/17 08:49:53;;;;;;;0.90;0.90;;;10.40;99.90;;;;;;4996962;28;20745;-62
2022/02/17 08:52:19;;;;;;;0.80;0.80;;;10.40;99.90;;;;;;4995040;28;20423;-61
2022/02/17 08:54:45;;;;;;;0.80;0.80;;;10.50;99.90;;;;;;4991514;28;20213;-61
2022/02/17 08:57:11;;;;;;;1.33;1.00;;;10.40;99.90;;;;;;4988182;28;20464;-61
2022/02/17 08:59:36;;;;;;;0.80;0.80;;;10.40;99.90;;;;;;4988445;28;20189;-61
2022/02/17 09:02:02;;;;;;;1.00;0.70;;;10.40;99.90;;;;;;5002978;28;20428;-61
2022/02/17 09:04:30;;;;;;;0.97;0.97;;;10.40;99.90;;;;;;4988638;28;20201;-61
2022/02/17 09:06:56;;;;;;;4.80;1.10;;;10.40;99.90;;;;;;4995113;28;20165;-62
2022/02/17 09:09:22;;;;;;;0.83;0.83;;;10.30;99.90;;;;;;4989375;28;20460;-61
2022/02/17 09:11:47;;;;;;;1.47;0.90;;;10.20;99.90;;;;;;4988885;28;20549;-60
2022/02/17 09:14:13;;;;;;;0.80;0.80;;;10.10;99.90;;;;;;4988223;28;20764;-61
2022/02/17 09:16:38;;;;;;;1.10;0.70;;;9.90;99.90;;;;;;4981428;28;20176;-61
2022/02/17 09:19:05;;;;;;;1.00;0.90;;;9.90;99.90;;;;;;4983833;28;20200;-61
2022/02/17 09:21:31;;;;;;;0.83;0.70;;;9.80;99.90;;;;;;4982116;28;20543;-60
2022/02/17 09:23:57;;;;;;;0.83;0.83;;;9.80;99.90;;;;;;4984202;28;20464;-60
2022/02/17 09:26:24;;;;;;;2.10;0.90;;;9.80;99.90;;;;;;4983423;28;20424;-61
2022/02/17 09:28:49;;;;;;;1.40;0.80;;;9.80;99.90;;;;;;4979902;28;20846;-61
2022/02/17 09:31:19;;;;;;;1.80;1.03;;;9.80;99.90;;;;;;4982005;28;20495;-62
2022/02/17 09:33:53;;;;;;;1.67;0.90;;;9.80;99.90;;;;;;5005566;28;20192;-60
2022/02/17 09:36:20;;;;;;;6.20;1.60;;;9.80;99.90;;;;;;4982472;28;21145;-61
2022/02/17 09:38:47;;;;;;;5.47;1.83;;;9.90;99.90;;;;;;4984239;28;20439;-60
2022/02/17 09:41:16;;;;;;;7.70;1.47;;;9.90;99.90;;;;;;4989237;28;20757;-61
2022/02/17 09:43:43;;;;;;;6.90;1.50;;;9.90;99.90;;;;;;4988507;28;20459;-60
2022/02/17 09:46:12;;;;;;;7.03;1.53;;;9.90;99.90;;;;;;4984601;28;20425;-61
2022/02/17 09:48:39;;;;;;;5.97;1.87;;;10.00;99.90;;;;;;4991503;28;20455;-61
2022/02/17 09:51:05;;;;;;;5.23;1.60;;;10.00;99.90;;;;;;4989300;28;20557;-61
2022/02/17 09:53:30;;;;;;;5.30;1.40;;;10.10;99.90;;;;;;4992356;28;20921;-61
2022/02/17 09:55:56;;;;;;;7.93;2.30;;;10.10;99.90;;;;;;4988922;28;20738;-61
2022/02/17 09:58:22;;;;;;;5.80;2.57;;;10.10;99.90;;;;;;4987464;28;20574;-61
2022/02/17 10:00:47;;;;;;;7.77;1.60;;;10.20;99.90;;;;;;4986225;28;20193;-61
2022/02/17 10:03:23;;;;;;;8.70;2.37;;;10.50;99.90;;;;;;4989637;28;20224;-61
2022/02/17 10:06:08;;;;;;;14.50;2.03;;;10.60;99.10;;;;;;4993178;28;20187;-63
2022/02/17 10:08:35;;;;;;;9.20;2.00;;;10.80;97.50;;;;;;4985079;28;20424;-61
2022/02/17 10:11:01;;;;;;;8.60;2.20;;;10.80;96.90;;;;;;5002927;28;20534;-61
2022/02/17 10:13:26;;;;;;;5.03;1.70;;;10.80;98.30;;;;;;4989727;28;20581;-62
2022/02/17 10:15:54;;;;;;;3.70;1.80;;;10.90;98.40;;;;;;4986683;28;20604;-60
2022/02/17 10:18:27;;;;;;;12.73;2.20;;;11.00;97.40;;;;;;4985226;28;20657;-62
2022/02/17 10:20:53;;;;;;;7.60;2.30;;;11.00;95.40;;;;;;4988354;28;20550;-62
2022/02/17 10:23:20;;;;;;;5.17;1.60;;;11.00;94.70;;;;;;4983873;28;20554;-61
2022/02/17 10:25:58;;;;;;;5.47;1.80;;;10.90;95.00;;;;;;4986853;28;20383;-61
2022/02/17 10:28:25;;;;;;;4.23;1.40;;;10.80;94.90;;;;;;4982854;28;20869;-61
2022/02/17 10:30:51;;;;;;;5.97;1.73;;;10.70;95.70;;;;;;4984087;28;20814;-61
2022/02/17 10:33:17;;;;;;;4.17;1.70;;;10.60;94.50;;;;;;4987175;28;20459;-63
2022/02/17 10:35:57;;;;;;;7.77;2.93;;;10.60;94.00;;;;;;4984439;28;20184;-61
2022/02/17 10:38:23;;;;;;;6.63;2.10;;;10.50;92.50;;;;;;4981998;28;20259;-61
2022/02/17 10:40:52;;;;;;;6.80;2.20;;;10.40;90.40;;;;;;4993197;28;21229;-63
2022/02/17 10:43:18;;;;;;;4.63;1.87;;;10.40;92.40;;;;;;4986191;28;20866;-62
2022/02/17 10:45:46;;;;;;;7.10;2.10;;;10.30;92.90;;;;;;4990345;28;20429;-63
2022/02/17 10:48:26;;;;;;;8.90;1.80;;;10.30;92.70;;;;;;4986764;28;20432;-61
2022/02/17 10:51:11;;;;;;;6.53;1.80;;;10.30;94.50;;;;;;4984836;28;20511;-62
2022/02/17 10:53:40;;;;;;;6.67;1.73;;;10.30;92.30;;;;;;4991075;28;20466;-63
2022/02/17 10:56:15;;;;;;;7.53;2.00;;;10.20;92.00;;;;;;4984258;28;20433;-63
2022/02/17 10:58:46;;;;;;;3.43;1.83;;;10.20;92.10;;;;;;4987161;28;20471;-62
2022/02/17 11:01:13;;;;;;;4.20;2.30;;;10.20;92.90;;;;;;4979474;28;20433;-62
2022/02/17 11:03:39;;;;;;;6.70;2.17;;;10.20;88.10;;;;;;4984361;28;20461;-63
2022/02/17 11:06:06;;;;;;;5.60;2.20;;;10.10;89.20;;;;;;4983213;28;20795;-63
2022/02/17 11:08:32;;;;;;;9.83;2.20;;;10.10;91.60;;;;;;4983669;28;20456;-62
2022/02/17 11:10:59;;;;;;;8.40;1.90;;;10.20;91.80;;;;;;4984283;28;20549;-63
2022/02/17 11:13:27;;;;;;;9.63;2.20;;;10.20;91.40;;;;;;4985783;28;20178;-62
2022/02/17 11:15:56;;;;;;;8.87;1.77;;;10.30;91.10;;;;;;4983972;28;20741;-61
2022/02/17 11:18:22;;;;;;;7.23;1.80;;;10.30;88.20;;;;;;4977828;28;20428;-63
2022/02/17 11:20:50;;;;;;;3.70;1.83;;;10.50;88.00;;;;;;4986466;28;20463;-62
2022/02/17 11:23:19;;;;;;;7.10;2.10;;;10.60;87.70;;;;;;4986178;28;20472;-62
2022/02/17 11:25:45;;;;;;;13.00;2.63;;;10.70;89.70;;;;;;4983427;28;20500;-62
2022/02/17 11:28:13;;;;;;;6.17;2.00;;;10.90;86.10;;;;;;4980198;28;21083;-62
2022/02/17 11:30:55;;;;;;;5.30;1.60;;;11.10;87.40;;;;;;4994100;28;20502;-62
2022/02/17 11:33:29;;;;;;;10.63;2.17;;;11.40;88.40;;;;;;4988853;28;20550;-62
2022/02/17 11:36:09;;;;;;;8.37;2.23;;;11.60;89.80;;;;;;4985573;28;20443;-63
2022/02/17 11:38:39;;;;;;;5.40;1.63;;;12.00;84.80;;;;;;4981938;28;20498;-63
2022/02/17 11:41:08;;;;;;;5.57;2.00;;;12.40;77.00;;;;;;4989382;28;20434;-63
2022/02/17 11:43:36;;;;;;;8.07;1.90;;;12.60;72.40;;;;;;4990035;28;20463;-63
2022/02/17 11:46:03;;;;;;;4.30;1.80;;;12.50;71.10;;;;;;4992803;28;20511;-62
2022/02/17 11:48:35;;;;;;;7.47;1.83;;;12.60;72.40;;;;;;4984236;28;20480;-62
2022/02/17 11:51:29;;;;;;;10.70;2.07;;;12.50;73.10;;;;;;4983395;28;20449;-63
2022/02/17 11:54:19;;;;;;;4.27;2.07;;;12.30;74.70;;;;;;4973453;28;20436;-65
2022/02/17 11:56:50;;;;;;;4.50;1.73;;;12.00;75.00;;;;;;4980857;28;20515;-62
2022/02/17 11:59:30;;;;;;;5.33;1.83;;;12.10;76.00;;;;;;4992442;28;20451;-62
2022/02/17 12:01:58;;;;;;;5.50;1.93;;;12.00;75.30;;;;;;4974953;28;20417;-62
2022/02/17 12:04:29;;;;;;;6.10;2.10;;;11.90;78.00;;;;;;4984399;28;20474;-63
2022/02/17 12:06:59;;;;;;;5.30;1.90;;;11.70;80.30;;;;;;4980177;28;20492;-64
2022/02/17 12:09:36;;;;;;;7.50;2.30;;;11.50;80.30;;;;;;4981885;28;20475;-64
2022/02/17 12:12:20;;;;;;;7.83;2.30;;;11.40;84.50;;;;;;4981801;28;20424;-64
2022/02/17 12:14:57;;;;;;;6.77;2.33;;;11.20;84.50;;;;;;4977195;28;20448;-61
2022/02/17 12:17:29;;;;;;;7.10;2.40;;;11.00;85.00;;;;;;5000987;28;20420;-62
2022/02/17 12:20:11;;;;;;;9.37;2.17;;;10.90;87.60;;;;;;4983146;28;20924;-62
2022/02/17 12:22:53;;;;;;;7.83;1.90;;;10.80;90.00;;;;;;4999758;28;20426;-62
2022/02/17 12:25:25;;;;;;;6.70;2.17;;;10.80;90.40;;;;;;4971325;28;20421;-61
2022/02/17 12:28:02;;;;;;;10.47;2.23;;;10.70;90.50;;;;;;4988909;28;20428;-61
2022/02/17 12:30:51;;;;;;;10.37;2.53;;;10.70;91.70;;;;;;4975619;28;20447;-61
2022/02/17 12:33:19;;;;;;;5.53;1.97;;;10.60;92.10;;;;;;4971235;28;20437;-62
2022/02/17 12:36:00;;;;;;;12.03;3.57;;;10.60;90.40;;;;;;4987411;28;20412;-62
2022/02/17 12:38:29;;;;;;;6.73;2.40;;;10.60;90.60;;;;;;4970542;28;20449;-63
2022/02/17 12:40:55;;;;;;;5.30;2.20;;;10.60;89.20;;;;;;4985977;28;21035;-62
2022/02/17 12:43:32;;;;;;;6.73;2.27;;;10.60;85.80;;;;;;4999376;28;20486;-61
2022/02/17 12:45:58;;;;;;;7.17;2.30;;;10.60;83.20;;;;;;4986011;28;20185;-62
2022/02/17 12:48:28;;;;;;;10.00;2.20;;;10.70;84.70;;;;;;5001679;28;20495;-61
2022/02/17 12:50:54;;;;;;;5.77;2.13;;;10.80;86.10;;;;;;4979874;28;20456;-62
2022/02/17 12:53:20;;;;;;;10.17;2.73;;;10.70;87.80;;;;;;4995326;28;20443;-63
2022/02/17 12:55:51;;;;;;;6.80;2.40;;;10.70;86.60;;;;;;4987417;28;20251;-63